Beresford, South Dakota
Current Conditions -  °F | °C
As of 6:55 AM on Saturday 25 Oct 2014 (Local Time) from KYKN Reporting Station
Clear Clear  
Wind Chill: 39°   Ceiling: Unl
Heat Index: 43°   Visibility: 10mi
Dew Point: 37°   Wind: 6mph
Humidity: 81%   Direction: 300°WNW
Pressure: 30.12"   Gusts: NA
Location:  43.08°N, 96.77°W
Report Text: KYKN 251155Z AUTO 30005KT 10SM CLR 06/03 A3012 RMK AO1 10100 20060 52014
Loading
Personal Weather Stations






























Interactive Weather Map
Tropical Storm Tracking
New forecast layout! Learn more

10-Day Weather Forecast

Advertisements
Track Severe Weather on mobile